createdAt,value
2017-08-25T00:01:23.953Z,80.70
2017-08-25T00:03:52.153Z,80.40
2017-08-25T00:06:20.322Z,80.60
2017-08-25T00:08:48.479Z,80.50
2017-08-25T00:11:17.002Z,80.40
2017-08-25T00:13:45.149Z,80.60
2017-08-25T00:16:13.299Z,80.40
2017-08-25T00:18:41.479Z,80.50
2017-08-25T00:21:09.651Z,80.80
2017-08-25T00:23:37.813Z,80.90
2017-08-25T00:26:06.755Z,80.90
2017-08-25T00:28:34.907Z,80.80
2017-08-25T00:31:03.084Z,81.10
2017-08-25T00:33:31.291Z,81.00
2017-08-25T00:35:59.464Z,81.10
2017-08-25T00:38:27.613Z,80.80
2017-08-25T00:40:55.813Z,80.60
2017-08-25T00:43:23.985Z,80.60
2017-08-25T00:45:52.133Z,80.80
2017-08-25T00:48:20.341Z,80.80
2017-08-25T00:50:49.316Z,81.10
2017-08-25T00:53:17.483Z,81.10
2017-08-25T00:55:45.654Z,81.30
2017-08-25T00:58:13.799Z,81.30
2017-08-25T01:00:41.946Z,81.40
2017-08-25T01:03:10.136Z,81.50
2017-08-25T01:05:38.283Z,81.60
2017-08-25T01:08:06.434Z,81.80
2017-08-25T01:10:34.607Z,81.80
2017-08-25T01:13:02.774Z,82.10
2017-08-25T01:15:30.945Z,82.20
2017-08-25T01:17:59.115Z,82.60
2017-08-25T01:20:27.266Z,83.00
2017-08-25T01:22:55.425Z,83.50
2017-08-25T01:25:24.402Z,83.50
2017-08-25T01:27:52.569Z,83.40
2017-08-25T01:30:20.715Z,83.30
2017-08-25T01:32:48.916Z,83.60
2017-08-25T01:35:17.067Z,83.60
2017-08-25T01:37:45.225Z,84.10
2017-08-25T01:40:13.407Z,84.00
2017-08-25T01:42:41.563Z,83.80
2017-08-25T01:45:09.745Z,84.30
2017-08-25T01:47:37.953Z,84.20
2017-08-25T01:50:06.122Z,84.50
2017-08-25T01:52:34.298Z,84.60
2017-08-25T01:55:02.472Z,84.90
2017-08-25T01:57:30.952Z,85.10
2017-08-25T01:59:59.099Z,85.10
2017-08-25T02:02:27.298Z,85.40
2017-08-25T02:04:55.465Z,85.70
2017-08-25T02:07:23.632Z,85.30
2017-08-25T02:09:51.829Z,85.20
2017-08-25T02:12:19.993Z,85.30
2017-08-25T02:14:48.141Z,85.80
2017-08-25T02:17:16.310Z,85.60
2017-08-25T02:19:44.476Z,85.90
2017-08-25T02:22:12.644Z,85.90
2017-08-25T02:24:40.841Z,85.70
2017-08-25T02:27:09.755Z,85.60
2017-08-25T02:29:37.914Z,85.60
2017-08-25T02:32:06.085Z,85.50
2017-08-25T02:34:34.250Z,85.80
2017-08-25T02:37:02.427Z,85.90
2017-08-25T02:39:30.617Z,86.10
2017-08-25T02:41:58.802Z,85.60
2017-08-25T02:44:27.298Z,85.60
2017-08-25T02:46:55.475Z,85.00
2017-08-25T02:49:23.628Z,84.60
2017-08-25T02:51:51.781Z,84.20
2017-08-25T02:54:19.955Z,84.00
2017-08-25T02:56:48.106Z,83.70
2017-08-25T02:59:16.259Z,83.20
2017-08-25T03:01:44.444Z,83.30
2017-08-25T03:04:12.586Z,83.20
2017-08-25T03:06:40.730Z,83.50
2017-08-25T03:09:08.927Z,83.40
2017-08-25T03:11:37.072Z,83.60
2017-08-25T03:14:05.242Z,83.50
2017-08-25T03:16:33.429Z,83.60
2017-08-25T03:19:01.593Z,83.80
2017-08-25T03:21:29.746Z,83.80
2017-08-25T03:23:57.945Z,83.90
2017-08-25T03:26:26.090Z,84.30
2017-08-25T03:28:54.246Z,84.80
2017-08-25T03:31:22.423Z,83.70
2017-08-25T03:33:50.572Z,84.10
2017-08-25T03:36:18.720Z,84.10
2017-08-25T03:38:46.908Z,84.20
2017-08-25T03:41:15.082Z,84.20
2017-08-25T03:43:43.265Z,84.10
2017-08-25T03:46:11.436Z,84.90
2017-08-25T03:48:39.599Z,84.20
2017-08-25T03:51:07.762Z,84.00
2017-08-25T03:53:35.940Z,83.90
2017-08-25T03:56:04.090Z,83.60
2017-08-25T03:58:32.246Z,83.40
2017-08-25T04:01:00.445Z,83.00
2017-08-25T04:03:28.595Z,82.80
2017-08-25T04:05:56.757Z,82.60
2017-08-25T04:08:25.338Z,82.80
2017-08-25T04:10:53.497Z,82.70
2017-08-25T04:13:21.638Z,82.80
2017-08-25T04:15:49.831Z,82.60
2017-08-25T04:18:17.979Z,82.20
2017-08-25T04:20:46.146Z,82.30
2017-08-25T04:23:14.322Z,82.00
2017-08-25T04:25:42.485Z,82.00
2017-08-25T04:28:10.634Z,81.90
2017-08-25T04:30:38.825Z,82.00
2017-08-25T04:33:06.990Z,82.00
2017-08-25T04:35:35.172Z,82.10
2017-08-25T04:38:03.365Z,81.80
2017-08-25T04:40:31.509Z,81.70
2017-08-25T04:42:59.659Z,81.80
2017-08-25T04:45:27.848Z,81.50
2017-08-25T04:47:56.004Z,81.40
2017-08-25T04:50:24.163Z,81.20
2017-08-25T04:52:52.361Z,81.70
2017-08-25T04:55:20.507Z,80.90
2017-08-25T04:57:48.651Z,81.40
2017-08-25T05:00:16.841Z,81.40
2017-08-25T05:02:45.005Z,81.50
2017-08-25T05:05:13.155Z,81.70
2017-08-25T05:07:41.362Z,82.90
2017-08-25T05:10:09.539Z,82.50
2017-08-25T05:12:37.697Z,82.30
2017-08-25T05:15:05.879Z,82.40
2017-08-25T05:17:34.815Z,82.10
2017-08-25T05:20:02.962Z,82.00
2017-08-25T05:22:31.160Z,82.00
2017-08-25T05:24:59.324Z,82.20
2017-08-25T05:27:27.475Z,82.30
2017-08-25T05:29:55.688Z,82.60
2017-08-25T05:32:23.834Z,82.60
2017-08-25T05:34:51.987Z,82.60
2017-08-25T05:37:20.180Z,81.70
2017-08-25T05:39:48.349Z,82.20
2017-08-25T05:42:16.495Z,82.00
2017-08-25T05:44:44.675Z,82.20
2017-08-25T05:47:12.818Z,82.10
2017-08-25T05:49:40.971Z,82.10
2017-08-25T05:52:09.151Z,81.80
2017-08-25T05:54:37.321Z,81.20
2017-08-25T05:57:05.503Z,81.90
2017-08-25T05:59:34.446Z,80.80
2017-08-25T06:02:02.605Z,80.80
2017-08-25T06:04:30.770Z,80.60
2017-08-25T06:06:58.947Z,80.00
2017-08-25T06:09:27.099Z,79.80
2017-08-25T06:11:55.441Z,79.30
2017-08-25T06:14:23.617Z,79.20
2017-08-25T06:16:51.788Z,78.70
2017-08-25T06:19:19.940Z,78.80
2017-08-25T06:21:48.136Z,78.70
2017-08-25T06:24:16.303Z,78.20
2017-08-25T06:26:44.469Z,77.90
2017-08-25T06:29:12.661Z,77.90
2017-08-25T06:31:40.842Z,77.90
2017-08-25T06:34:08.994Z,78.00
2017-08-25T06:36:37.170Z,78.10
2017-08-25T06:39:05.323Z,77.30
2017-08-25T06:41:33.501Z,77.00
2017-08-25T06:44:01.692Z,77.60
2017-08-25T06:46:29.845Z,77.40
2017-08-25T06:48:58.014Z,77.80
2017-08-25T06:51:26.192Z,77.30
2017-08-25T06:53:54.364Z,77.00
2017-08-25T06:56:22.511Z,76.40
2017-08-25T06:58:50.687Z,76.00
2017-08-25T07:01:18.835Z,77.00
2017-08-25T07:03:47.001Z,76.20
2017-08-25T07:06:15.171Z,75.40
2017-08-25T07:08:43.443Z,74.70
2017-08-25T07:11:11.613Z,74.30
2017-08-25T07:13:39.813Z,73.40
2017-08-25T07:16:07.958Z,73.10
2017-08-25T07:18:36.123Z,72.20
2017-08-25T07:21:04.325Z,71.80
2017-08-25T07:23:32.470Z,71.10
2017-08-25T07:26:00.641Z,71.10
2017-08-25T07:28:28.834Z,70.30
2017-08-25T07:30:57.008Z,69.20
2017-08-25T07:33:25.154Z,69.70
2017-08-25T07:35:53.358Z,68.10
2017-08-25T07:38:21.523Z,67.10
2017-08-25T07:40:49.688Z,65.40
2017-08-25T07:43:17.863Z,64.20
2017-08-25T07:45:46.029Z,64.40
2017-08-25T07:48:14.197Z,62.30
2017-08-25T07:50:42.366Z,62.40
2017-08-25T07:53:11.278Z,61.90
2017-08-25T07:55:39.427Z,61.90
2017-08-25T07:58:07.602Z,62.30
2017-08-25T08:00:35.765Z,62.60
2017-08-25T08:03:03.916Z,61.40
2017-08-25T08:05:32.113Z,60.90
2017-08-25T08:08:00.260Z,60.20
2017-08-25T08:10:28.417Z,59.70
2017-08-25T08:12:56.612Z,58.90
2017-08-25T08:15:24.785Z,59.40
2017-08-25T08:17:52.941Z,59.40
2017-08-25T08:20:21.142Z,58.30
2017-08-25T08:22:49.321Z,57.10
2017-08-25T08:25:17.471Z,56.60
2017-08-25T08:27:45.663Z,56.50
2017-08-25T08:30:13.832Z,54.80
2017-08-25T08:32:42.014Z,53.20
2017-08-25T08:35:10.208Z,50.40
2017-08-25T08:37:38.382Z,48.60
2017-08-25T08:40:06.551Z,47.30
2017-08-25T08:42:34.734Z,46.20
2017-08-25T08:45:02.887Z,45.40
2017-08-25T08:47:31.045Z,43.90
2017-08-25T08:49:59.227Z,44.40
2017-08-25T08:52:27.396Z,43.50
2017-08-25T08:54:55.542Z,41.80
2017-08-25T08:57:23.742Z,40.80
2017-08-25T08:59:51.911Z,42.30
2017-08-25T09:02:20.058Z,43.30
2017-08-25T09:04:48.242Z,44.80
2017-08-25T09:07:16.388Z,46.30
2017-08-25T09:09:44.569Z,47.60
2017-08-25T09:12:12.783Z,49.00
2017-08-25T09:14:40.955Z,48.00
2017-08-25T09:17:09.133Z,48.70
2017-08-25T09:19:37.330Z,49.70
2017-08-25T09:22:05.508Z,49.30
2017-08-25T09:24:33.670Z,49.80
2017-08-25T09:27:01.869Z,49.20
2017-08-25T09:29:30.045Z,49.10
2017-08-25T09:31:58.213Z,50.20
2017-08-25T09:34:26.401Z,50.90
2017-08-25T09:36:55.347Z,52.20
2017-08-25T09:39:23.524Z,52.20
2017-08-25T09:41:51.722Z,52.60
2017-08-25T09:44:19.873Z,52.70
2017-08-25T09:46:48.038Z,53.40
2017-08-25T09:49:16.234Z,54.40
2017-08-25T09:51:44.393Z,54.80
2017-08-25T09:54:12.556Z,54.90
2017-08-25T09:56:40.750Z,55.90
2017-08-25T09:59:08.918Z,56.50
2017-08-25T10:01:37.066Z,56.50
2017-08-25T10:04:05.235Z,56.60
2017-08-25T10:06:33.470Z,56.70
2017-08-25T10:09:01.638Z,54.70
2017-08-25T10:11:29.824Z,49.30
2017-08-25T10:13:57.986Z,45.30
2017-08-25T10:16:26.172Z,45.10
2017-08-25T10:18:54.354Z,46.80
2017-08-25T10:21:22.529Z,48.70
2017-08-25T10:23:50.676Z,50.70
2017-08-25T10:26:18.909Z,51.70
2017-08-25T10:28:47.057Z,53.20
2017-08-25T10:31:15.220Z,54.60
2017-08-25T10:33:46.928Z,54.30
2017-08-25T10:39:46.095Z,49.10
2017-08-25T10:45:18.289Z,41.70
2017-08-25T10:47:46.433Z,39.50
2017-08-25T10:50:14.598Z,39.00
2017-08-25T10:52:42.783Z,40.40
2017-08-25T10:55:10.949Z,40.40
2017-08-25T10:57:39.137Z,40.20
2017-08-25T11:00:07.314Z,40.20
2017-08-25T11:02:35.469Z,39.10
2017-08-25T11:05:03.638Z,35.80
2017-08-25T11:07:31.826Z,31.20
2017-08-25T11:09:59.985Z,28.30
2017-08-25T11:12:28.144Z,27.20
2017-08-25T11:14:56.334Z,25.30
2017-08-25T11:17:24.482Z,24.30
2017-08-25T11:19:52.649Z,23.70
2017-08-25T11:22:20.842Z,22.10
2017-08-25T11:24:48.985Z,21.60
2017-08-25T11:27:17.125Z,22.30
2017-08-25T11:29:45.300Z,24.60
2017-08-25T11:32:13.464Z,27.70
2017-08-25T11:34:41.611Z,30.50
2017-08-25T11:37:09.805Z,31.80
2017-08-25T11:39:37.951Z,32.60
2017-08-25T11:42:06.099Z,35.00
2017-08-25T11:44:34.267Z,36.10
2017-08-25T11:47:02.415Z,37.00
2017-08-25T11:49:30.559Z,39.80
2017-08-25T11:51:58.748Z,40.60
2017-08-25T11:54:26.909Z,41.20
2017-08-25T11:56:55.070Z,41.90
2017-08-25T11:59:23.286Z,42.50
2017-08-25T12:01:51.458Z,42.20
2017-08-25T12:04:19.607Z,42.40
2017-08-25T12:06:47.778Z,41.70
2017-08-25T12:09:15.946Z,40.40
2017-08-25T12:11:44.112Z,39.20
2017-08-25T12:14:12.291Z,39.60
2017-08-25T12:16:41.202Z,40.30
2017-08-25T12:19:09.349Z,40.30
2017-08-25T12:21:38.313Z,42.30
2017-08-25T12:24:06.479Z,42.20
2017-08-25T12:26:34.629Z,42.80
2017-08-25T12:29:02.822Z,42.70
2017-08-25T12:31:30.967Z,40.60
2017-08-25T12:33:59.129Z,38.80
2017-08-25T12:36:27.321Z,35.30
2017-08-25T12:38:55.505Z,34.00
2017-08-25T12:41:24.014Z,34.10
2017-08-25T12:43:52.188Z,34.40
2017-08-25T12:46:20.333Z,36.00
2017-08-25T12:48:48.476Z,37.00
2017-08-25T12:51:16.659Z,36.30
2017-08-25T12:53:44.810Z,37.00
2017-08-25T12:56:12.963Z,36.80
2017-08-25T12:58:41.949Z,37.20
2017-08-25T13:01:10.102Z,38.90
2017-08-25T13:03:38.290Z,38.70
2017-08-25T13:06:06.489Z,38.40
2017-08-25T13:08:34.630Z,37.30
2017-08-25T13:11:02.773Z,37.90
2017-08-25T13:13:30.969Z,37.90
2017-08-25T13:15:59.133Z,38.50
2017-08-25T13:18:27.329Z,38.80
2017-08-25T13:20:55.517Z,37.30
2017-08-25T13:23:23.668Z,37.40
2017-08-25T13:25:51.821Z,37.30
2017-08-25T13:28:20.015Z,36.50
2017-08-25T13:30:48.188Z,37.20
2017-08-25T13:33:16.351Z,38.10
2017-08-25T13:35:44.654Z,37.30
2017-08-25T13:38:12.830Z,36.00
2017-08-25T13:40:41.003Z,36.70
2017-08-25T13:43:09.182Z,38.50
2017-08-25T13:45:37.328Z,38.80
2017-08-25T13:48:05.498Z,37.90
2017-08-25T13:50:33.712Z,37.30
2017-08-25T13:53:01.863Z,37.90
2017-08-25T13:55:30.010Z,37.80
2017-08-25T13:57:58.190Z,38.50
2017-08-25T14:00:26.366Z,39.10
2017-08-25T14:02:55.137Z,39.60
2017-08-25T14:05:23.778Z,39.70
2017-08-25T14:07:51.950Z,39.40
2017-08-25T14:10:34.283Z,38.50
2017-08-25T14:13:02.467Z,39.00
2017-08-25T14:15:30.647Z,39.00
2017-08-25T14:17:58.818Z,38.60
2017-08-25T14:20:27.909Z,39.20
2017-08-25T14:22:56.090Z,39.90
2017-08-25T14:25:25.033Z,41.80
2017-08-25T14:27:53.234Z,41.20
2017-08-25T14:30:21.418Z,41.20
2017-08-25T14:32:49.570Z,41.90
2017-08-25T14:35:17.724Z,42.10
2017-08-25T14:37:45.909Z,42.80
2017-08-25T14:40:14.081Z,43.30
2017-08-25T14:42:42.258Z,42.30
2017-08-25T14:45:10.474Z,42.90
2017-08-25T14:47:38.647Z,43.10
2017-08-25T14:50:06.821Z,42.70
2017-08-25T14:52:35.017Z,42.60
2017-08-25T14:55:03.191Z,43.00
2017-08-25T14:57:31.346Z,43.10
2017-08-25T14:59:59.535Z,43.00
2017-08-25T15:02:28.479Z,43.80
2017-08-25T15:04:56.664Z,43.80
2017-08-25T15:07:24.883Z,44.00
2017-08-25T15:09:53.804Z,44.50
2017-08-25T15:12:21.978Z,44.50
2017-08-25T15:14:50.157Z,44.80
2017-08-25T15:17:18.308Z,45.00
2017-08-25T15:19:46.479Z,44.60
2017-08-25T15:22:14.692Z,45.00
2017-08-25T15:24:42.861Z,44.90
2017-08-25T15:27:11.016Z,45.50
2017-08-25T15:29:39.191Z,45.50
2017-08-25T15:32:07.361Z,45.40
2017-08-25T15:34:35.516Z,45.60
2017-08-25T15:37:04.471Z,46.40
2017-08-25T15:39:32.620Z,46.40
2017-08-25T15:42:00.771Z,46.60
2017-08-25T15:44:28.966Z,46.60
2017-08-25T15:46:57.120Z,47.20
2017-08-25T15:49:25.279Z,47.10
2017-08-25T15:51:53.464Z,47.20
2017-08-25T15:54:21.641Z,47.50
2017-08-25T15:56:50.615Z,47.50
2017-08-25T15:59:18.784Z,47.40
2017-08-25T16:01:46.953Z,47.20
2017-08-25T16:04:15.122Z,47.40
2017-08-25T16:06:43.308Z,47.50
2017-08-25T16:09:11.474Z,47.80
2017-08-25T16:11:39.623Z,47.90
2017-08-25T16:14:07.807Z,47.40
2017-08-25T16:16:35.954Z,47.30
2017-08-25T16:19:04.125Z,47.60
2017-08-25T16:21:32.301Z,47.90
2017-08-25T16:24:00.446Z,47.90
2017-08-25T16:26:28.590Z,47.60
2017-08-25T16:28:56.758Z,47.80
2017-08-25T16:31:24.918Z,47.80
2017-08-25T16:33:53.091Z,47.80
2017-08-25T16:36:21.280Z,48.00
2017-08-25T16:38:49.421Z,48.00
2017-08-25T16:41:17.572Z,48.50
2017-08-25T16:43:45.774Z,48.30
2017-08-25T16:46:13.930Z,48.20
2017-08-25T16:48:42.096Z,48.00
2017-08-25T16:51:10.269Z,48.40
2017-08-25T16:53:39.199Z,48.10
2017-08-25T16:56:07.366Z,48.10
2017-08-25T16:58:35.546Z,48.40
2017-08-25T17:01:03.714Z,48.40
2017-08-25T17:03:31.855Z,48.60
2017-08-25T17:06:00.042Z,48.50
2017-08-25T17:08:28.958Z,48.50
2017-08-25T17:10:57.131Z,48.50
2017-08-25T17:13:25.322Z,48.90
2017-08-25T17:15:53.491Z,49.00
2017-08-25T17:18:21.656Z,48.90
2017-08-25T17:20:49.848Z,49.10
2017-08-25T17:23:17.994Z,49.20
2017-08-25T17:25:46.142Z,49.20
2017-08-25T17:28:14.314Z,49.30
2017-08-25T17:30:42.481Z,49.30
2017-08-25T17:33:10.655Z,49.50
2017-08-25T17:35:38.854Z,50.30
2017-08-25T17:38:07.023Z,50.00
2017-08-25T17:40:35.935Z,50.20
2017-08-25T17:43:04.136Z,50.20
2017-08-25T17:45:32.296Z,50.30
2017-08-25T17:48:00.448Z,50.40
2017-08-25T17:50:29.343Z,50.40
2017-08-25T17:52:57.522Z,50.70
2017-08-25T17:55:25.690Z,50.80
2017-08-25T17:57:53.867Z,51.10
2017-08-25T18:00:22.037Z,51.30
2017-08-25T18:02:50.202Z,51.40
2017-08-25T18:05:18.388Z,51.80
2017-08-25T18:07:46.530Z,52.00
2017-08-25T18:10:14.697Z,52.00
2017-08-25T18:12:42.877Z,51.80
2017-08-25T18:15:11.023Z,52.10
2017-08-25T18:17:39.188Z,52.30
2017-08-25T18:20:07.376Z,52.50
2017-08-25T18:22:35.544Z,52.80
2017-08-25T18:25:03.713Z,52.90
2017-08-25T18:27:31.890Z,52.90
2017-08-25T18:30:00.058Z,52.90
2017-08-25T18:32:28.206Z,53.10
2017-08-25T18:34:56.408Z,53.00
2017-08-25T18:37:24.587Z,53.10
2017-08-25T18:39:52.750Z,53.30
2017-08-25T18:42:20.952Z,53.40
2017-08-25T18:44:49.102Z,54.20
2017-08-25T18:47:17.269Z,53.90
2017-08-25T18:49:45.454Z,54.30
2017-08-25T18:52:13.627Z,54.60
2017-08-25T18:54:41.804Z,54.80
2017-08-25T18:57:09.997Z,55.10
2017-08-25T18:59:38.161Z,55.40
2017-08-25T19:02:06.326Z,55.90
2017-08-25T19:04:34.498Z,55.90
2017-08-25T19:07:02.640Z,56.20
2017-08-25T19:09:31.558Z,56.40
2017-08-25T19:12:00.516Z,57.20
2017-08-25T19:14:28.728Z,56.60
2017-08-25T19:16:56.879Z,56.80
2017-08-25T19:19:25.062Z,57.00
2017-08-25T19:21:53.208Z,57.10
2017-08-25T19:24:21.358Z,57.30
2017-08-25T19:26:49.670Z,57.50
2017-08-25T19:29:17.832Z,57.70
2017-08-25T19:31:46.004Z,58.00
2017-08-25T19:34:14.203Z,58.20
2017-08-25T19:36:42.367Z,58.30
2017-08-25T19:39:10.513Z,58.50
2017-08-25T19:41:38.694Z,58.50
2017-08-25T19:44:06.850Z,58.80
2017-08-25T19:46:35.021Z,59.00
2017-08-25T19:49:03.223Z,59.20
2017-08-25T19:51:31.389Z,59.40
2017-08-25T19:53:59.613Z,59.50
2017-08-25T19:56:27.810Z,59.60
2017-08-25T19:58:55.967Z,59.80
2017-08-25T20:01:24.139Z,60.10
2017-08-25T20:03:52.312Z,60.10
2017-08-25T20:06:20.464Z,60.50
2017-08-25T20:08:48.634Z,60.80
2017-08-25T20:11:16.824Z,61.20
2017-08-25T20:13:44.979Z,61.70
2017-08-25T20:16:13.151Z,61.90
2017-08-25T20:18:41.338Z,62.20
2017-08-25T20:21:09.490Z,62.50
2017-08-25T20:23:37.670Z,62.70
2017-08-25T20:26:05.880Z,62.90
2017-08-25T20:28:34.055Z,62.90
2017-08-25T20:31:02.234Z,62.80
2017-08-25T20:33:30.443Z,63.10
2017-08-25T20:35:58.628Z,63.00
2017-08-25T20:38:26.788Z,63.60
2017-08-25T20:40:54.967Z,63.90
2017-08-25T20:43:23.898Z,64.30
2017-08-25T20:45:52.050Z,64.20
2017-08-25T20:48:20.240Z,64.20
2017-08-25T20:50:48.423Z,64.70
2017-08-25T20:53:16.594Z,64.60
2017-08-25T20:55:44.776Z,64.80
2017-08-25T20:58:12.922Z,65.00
2017-08-25T21:00:41.095Z,65.10
2017-08-25T21:03:09.305Z,65.40
2017-08-25T21:05:37.482Z,65.50
2017-08-25T21:08:05.638Z,65.70
2017-08-25T21:10:33.814Z,66.00
2017-08-25T21:13:01.986Z,66.40
2017-08-25T21:15:30.161Z,66.50
2017-08-25T21:17:58.338Z,66.70
2017-08-25T21:20:26.491Z,66.70
2017-08-25T21:22:54.662Z,66.60
2017-08-25T21:25:22.847Z,66.70
2017-08-25T21:27:51.021Z,67.10
2017-08-25T21:30:20.362Z,67.30
2017-08-25T21:32:48.546Z,67.50
2017-08-25T21:35:16.718Z,67.90
2017-08-25T21:37:44.871Z,68.20
2017-08-25T21:40:13.069Z,68.30
2017-08-25T21:42:41.237Z,68.40
2017-08-25T21:45:09.408Z,68.70
2017-08-25T21:47:37.582Z,69.50
2017-08-25T21:50:05.753Z,68.70
2017-08-25T21:52:33.925Z,69.00
2017-08-25T21:55:02.129Z,69.20
2017-08-25T21:57:30.314Z,69.20
2017-08-25T21:59:58.492Z,69.30
2017-08-25T22:02:26.670Z,69.60
2017-08-25T22:04:54.844Z,69.80
2017-08-25T22:07:23.007Z,70.10
2017-08-25T22:09:51.230Z,69.60
2017-08-25T22:12:19.397Z,70.20
2017-08-25T22:14:47.554Z,70.20
2017-08-25T22:17:15.733Z,70.80
2017-08-25T22:19:43.900Z,71.30
2017-08-25T22:22:12.069Z,71.40
2017-08-25T22:24:40.273Z,71.30
2017-08-25T22:27:08.423Z,71.40
2017-08-25T22:29:36.594Z,71.30
2017-08-25T22:32:04.789Z,71.10
2017-08-25T22:34:32.959Z,71.20
2017-08-25T22:37:01.136Z,71.00
2017-08-25T22:39:29.334Z,71.20
2017-08-25T22:41:57.498Z,71.40
2017-08-25T22:44:25.684Z,71.30
2017-08-25T22:46:53.881Z,71.60
2017-08-25T22:49:22.046Z,71.50
2017-08-25T22:51:50.194Z,71.30
2017-08-25T22:54:18.394Z,71.50
2017-08-25T22:56:46.570Z,71.40
2017-08-25T22:59:14.746Z,71.60
2017-08-25T23:01:42.959Z,71.60
2017-08-25T23:04:11.122Z,71.70
2017-08-25T23:06:39.348Z,71.90
2017-08-25T23:09:07.549Z,71.90
2017-08-25T23:11:35.705Z,72.30
2017-08-25T23:14:03.859Z,72.40
2017-08-25T23:16:32.114Z,72.50
2017-08-25T23:19:00.296Z,72.50
2017-08-25T23:21:28.509Z,72.60
2017-08-25T23:23:56.704Z,72.90
2017-08-25T23:26:24.859Z,72.80
2017-08-25T23:28:53.032Z,72.70
2017-08-25T23:31:21.207Z,72.40
2017-08-25T23:33:49.364Z,72.40
2017-08-25T23:36:17.519Z,72.70
2017-08-25T23:38:45.703Z,72.90
2017-08-25T23:41:13.873Z,72.90
2017-08-25T23:43:42.031Z,72.90
2017-08-25T23:46:10.242Z,73.00
2017-08-25T23:48:38.430Z,73.10
2017-08-25T23:51:06.583Z,73.10
2017-08-25T23:53:34.769Z,73.20
2017-08-25T23:56:02.937Z,73.40
2017-08-25T23:58:31.109Z,73.30
